createdAt,value
2023-01-10T00:02:09.935Z,100602.41
2023-01-10T00:04:55.270Z,100591.25
2023-01-10T00:07:40.792Z,100584.34
2023-01-10T00:10:26.170Z,100576.56
2023-01-10T00:13:24.810Z,100574.81
2023-01-10T00:16:10.600Z,100570.56
2023-01-10T00:18:56.373Z,100568.75
2023-01-10T00:21:41.692Z,100572.16
2023-01-10T00:24:26.885Z,100556.69
2023-01-10T00:27:12.927Z,100548.13
2023-01-10T00:30:01.416Z,100551.56
2023-01-10T00:32:46.862Z,100554.19
2023-01-10T00:35:32.487Z,100553.38
2023-01-10T00:38:18.235Z,100544.88
2023-01-10T00:41:24.171Z,100534.59
2023-01-10T00:44:09.736Z,100524.28
2023-01-10T00:46:55.565Z,100525.22
2023-01-10T00:49:41.101Z,100526.03
2023-01-10T00:52:26.767Z,100527.78
2023-01-10T00:55:12.081Z,100509.81
2023-01-10T00:57:57.419Z,100506.56
2023-01-10T01:00:46.949Z,100489.47
2023-01-10T01:03:32.273Z,100483.53
2023-01-10T01:06:17.569Z,100465.44
2023-01-10T01:09:03.250Z,100458.53
2023-01-10T01:11:49.517Z,100446.53
2023-01-10T01:14:35.145Z,100445.69
2023-01-10T01:17:20.434Z,100447.41
2023-01-10T01:20:06.868Z,100427.50
2023-01-10T01:22:52.635Z,100418.84
2023-01-10T01:25:38.298Z,100417.09
2023-01-10T01:28:24.161Z,100419.66
2023-01-10T01:31:10.896Z,100411.06
2023-01-10T01:33:56.601Z,100396.38
2023-01-10T01:36:41.997Z,100390.28
2023-01-10T01:39:27.341Z,100396.34
2023-01-10T01:42:33.799Z,100384.22
2023-01-10T01:45:33.810Z,100387.66
2023-01-10T01:48:28.765Z,100384.25
2023-01-10T01:51:20.246Z,100378.28
2023-01-10T01:54:09.275Z,100368.03
2023-01-10T01:56:59.355Z,100373.28
2023-01-10T01:59:50.109Z,100360.41
2023-01-10T02:02:39.123Z,100364.72
2023-01-10T02:05:26.691Z,100354.41
2023-01-10T02:08:14.017Z,100346.69
2023-01-10T02:11:12.156Z,100334.63
2023-01-10T02:13:58.462Z,100327.66
2023-01-10T02:16:44.134Z,100306.09
2023-01-10T02:19:47.898Z,100306.13
2023-01-10T02:22:52.013Z,100291.56
2023-01-10T02:25:53.058Z,100283.09
2023-01-10T02:28:50.812Z,100266.81
2023-01-10T02:32:06.580Z,100259.06
2023-01-10T02:35:04.291Z,100242.63
2023-01-10T02:38:13.097Z,100247.81
2023-01-10T02:41:07.056Z,100231.41
2023-01-10T02:44:06.349Z,100226.25
2023-01-10T02:46:51.994Z,100220.22
2023-01-10T02:49:52.002Z,100218.53
2023-01-10T02:52:37.546Z,100221.13
2023-01-10T02:55:32.317Z,100219.41
2023-01-10T02:58:29.948Z,100215.06
2023-01-10T03:01:56.464Z,100208.06
2023-01-10T03:04:47.971Z,100193.34
2023-01-10T03:07:48.618Z,100183.78
2023-01-10T03:11:10.546Z,100179.41
2023-01-10T03:14:01.035Z,100159.53
2023-01-10T03:16:53.283Z,100143.97
2023-01-10T03:19:46.444Z,100138.75
2023-01-10T03:22:36.254Z,100144.75
2023-01-10T03:25:25.249Z,100128.34
2023-01-10T03:28:20.480Z,100124.03
2023-01-10T03:31:15.170Z,100113.69
2023-01-10T03:34:00.898Z,100091.25
2023-01-10T03:37:25.091Z,100073.13
2023-01-10T03:40:13.436Z,100069.66
2023-01-10T03:43:29.781Z,100057.56
2023-01-10T03:46:27.556Z,100054.97
2023-01-10T03:49:15.278Z,100027.41
2023-01-10T03:52:02.189Z,100030.00
2023-01-10T03:54:48.323Z,100011.91
2023-01-10T03:57:33.692Z,100000.69
2023-01-10T04:00:19.777Z,99997.25
2023-01-10T04:03:05.993Z,99975.69
2023-01-10T04:05:51.698Z,99972.22
2023-01-10T04:08:37.127Z,99952.44
2023-01-10T04:11:22.522Z,99927.44
2023-01-10T04:14:07.780Z,99926.63
2023-01-10T04:16:53.217Z,99911.97
2023-01-10T04:19:39.016Z,99913.72
2023-01-10T04:22:24.546Z,99902.53
2023-01-10T04:25:10.141Z,99893.06
2023-01-10T04:27:55.723Z,99891.34
2023-01-10T04:30:41.074Z,99885.34
2023-01-10T04:33:26.380Z,99876.72
2023-01-10T04:36:11.639Z,99871.56
2023-01-10T04:38:57.118Z,99858.66
2023-01-10T04:41:42.883Z,99850.91
2023-01-10T04:44:28.491Z,99844.00
2023-01-10T04:47:14.081Z,99825.91
2023-01-10T04:49:59.701Z,99800.06
2023-01-10T04:52:45.119Z,99787.13
2023-01-10T04:55:31.733Z,99788.03
2023-01-10T04:58:17.241Z,99767.34
2023-01-10T05:01:15.458Z,99761.31
2023-01-10T05:04:00.754Z,99750.13
2023-01-10T05:06:46.168Z,99740.63
2023-01-10T05:09:31.532Z,99739.78
2023-01-10T05:12:16.823Z,99715.66
2023-01-10T05:15:02.130Z,99704.44
2023-01-10T05:17:47.469Z,99690.63
2023-01-10T05:20:32.775Z,99688.06
2023-01-10T05:23:18.776Z,99679.44
2023-01-10T05:26:08.131Z,99675.97
2023-01-10T05:28:53.796Z,99657.00
2023-01-10T05:31:39.400Z,99663.91
2023-01-10T05:34:25.094Z,99651.81
2023-01-10T05:37:10.602Z,99643.16
2023-01-10T05:39:55.942Z,99642.34
2023-01-10T05:42:42.119Z,99622.47
2023-01-10T05:45:27.762Z,99637.16
2023-01-10T05:48:13.174Z,99619.00
2023-01-10T05:50:58.525Z,99618.13
2023-01-10T05:53:44.026Z,99609.50
2023-01-10T05:56:29.487Z,99581.88
2023-01-10T05:59:27.562Z,99576.66
2023-01-10T06:02:13.716Z,99567.13
2023-01-10T06:04:59.488Z,99563.66
2023-01-10T06:07:45.105Z,99558.47
2023-01-10T06:10:30.240Z,99539.47
2023-01-10T06:13:15.933Z,99523.06
2023-01-10T06:16:01.568Z,99528.22
2023-01-10T06:18:46.901Z,99515.25
2023-01-10T06:21:32.280Z,99514.38
2023-01-10T06:24:17.861Z,99505.72
2023-01-10T06:27:03.594Z,99508.25
2023-01-10T06:29:48.865Z,99489.22
2023-01-10T06:32:34.354Z,99477.13
2023-01-10T06:35:20.382Z,99476.25
2023-01-10T06:38:05.879Z,99473.66
2023-01-10T06:40:51.451Z,99461.53
2023-01-10T06:43:36.695Z,99455.44
2023-01-10T06:46:22.166Z,99456.31
2023-01-10T06:49:08.772Z,99444.16
2023-01-10T06:51:54.322Z,99438.97
2023-01-10T06:54:41.424Z,99434.66
2023-01-10T06:57:28.535Z,99425.16
2023-01-10T07:00:14.681Z,99424.28
2023-01-10T07:03:01.661Z,99413.03
2023-01-10T07:05:47.073Z,99404.41
2023-01-10T07:08:32.481Z,99402.63
2023-01-10T07:11:17.904Z,99401.41
2023-01-10T07:14:03.304Z,99404.66
2023-01-10T07:16:49.502Z,99400.31
2023-01-10T07:19:34.935Z,99402.41
2023-01-10T07:22:20.553Z,99406.47
2023-01-10T07:25:06.805Z,99395.72
2023-01-10T07:27:51.986Z,99402.47
2023-01-10T07:30:37.900Z,99384.94
2023-01-10T07:33:23.242Z,99386.41
2023-01-10T07:36:08.873Z,99380.13
2023-01-10T07:38:54.733Z,99373.97
2023-01-10T07:41:40.284Z,99374.88
2023-01-10T07:44:25.681Z,99350.44
2023-01-10T07:47:11.198Z,99353.78
2023-01-10T07:49:56.545Z,99341.53
2023-01-10T07:52:42.122Z,99337.88
2023-01-10T07:55:28.290Z,99341.38
2023-01-10T07:58:14.642Z,99323.88
2023-01-10T08:01:02.751Z,99322.03
2023-01-10T08:03:48.408Z,99299.44
2023-01-10T08:06:34.011Z,99302.78
2023-01-10T08:09:19.296Z,99307.94
2023-01-10T08:12:04.772Z,99300.94
2023-01-10T08:14:53.227Z,99294.78
2023-01-10T08:17:38.478Z,99294.69
2023-01-10T08:20:24.038Z,99303.38
2023-01-10T08:23:09.546Z,99281.50
2023-01-10T08:25:55.256Z,99280.59
2023-01-10T08:28:40.674Z,99274.31
2023-01-10T08:31:26.230Z,99271.53
2023-01-10T08:34:13.950Z,99281.88
2023-01-10T08:36:59.587Z,99260.75
2023-01-10T08:39:44.886Z,99282.47
2023-01-10T08:42:30.276Z,99271.09
2023-01-10T08:45:15.781Z,99271.00
2023-01-10T08:48:01.921Z,99262.97
2023-01-10T08:50:47.442Z,99248.19
2023-01-10T08:53:32.671Z,99260.44
2023-01-10T08:56:18.040Z,99243.13
2023-01-10T08:59:03.703Z,99250.91
2023-01-10T09:01:49.138Z,99247.34
2023-01-10T09:04:34.541Z,99258.72
2023-01-10T09:07:19.909Z,99252.44
2023-01-10T09:10:05.813Z,99248.94
2023-01-10T09:12:57.141Z,99261.91
2023-01-10T09:15:43.629Z,99242.66
2023-01-10T09:18:29.406Z,99248.75
2023-01-10T09:21:14.920Z,99238.38
2023-01-10T09:24:00.146Z,99232.22
2023-01-10T09:26:45.684Z,99243.31
2023-01-10T09:29:31.481Z,99243.91
2023-01-10T09:32:17.027Z,99239.44
2023-01-10T09:35:02.785Z,99230.72
2023-01-10T09:37:48.121Z,99228.91
2023-01-10T09:40:42.779Z,99244.47
2023-01-10T09:43:40.571Z,99233.19
2023-01-10T09:46:39.921Z,99243.53
2023-01-10T09:49:44.387Z,99234.81
2023-01-10T09:52:44.819Z,99221.59
2023-01-10T09:55:34.198Z,99219.78
2023-01-10T09:58:23.638Z,99210.28
2023-01-10T10:01:17.533Z,99204.13
2023-01-10T10:04:16.780Z,99209.41
2023-01-10T10:07:04.303Z,99208.41
2023-01-10T10:09:49.813Z,99210.13
2023-01-10T10:13:06.812Z,99200.53
2023-01-10T10:16:00.668Z,99205.56
2023-01-10T10:18:57.044Z,99194.97
2023-01-10T10:22:20.954Z,99187.06
2023-01-10T10:25:21.134Z,99184.34
2023-01-10T10:28:53.996Z,99178.97
2023-01-10T10:31:40.298Z,99166.66
2023-01-10T10:34:36.817Z,99163.94
2023-01-10T10:37:33.687Z,99158.63
2023-01-10T10:40:22.634Z,99165.34
2023-01-10T10:43:18.966Z,99132.13
2023-01-10T10:46:16.243Z,99147.63
2023-01-10T10:49:16.650Z,99143.97
2023-01-10T10:52:15.577Z,99140.47
2023-01-10T10:55:02.904Z,99129.81
2023-01-10T10:57:59.939Z,99122.72
2023-01-10T11:00:46.684Z,99115.66
2023-01-10T11:03:40.499Z,99112.06
2023-01-10T11:06:28.294Z,99100.66
2023-01-10T11:09:16.200Z,99096.28
2023-01-10T11:12:03.974Z,99096.25
2023-01-10T11:14:52.248Z,99084.88
2023-01-10T11:17:41.140Z,99081.22
2023-01-10T11:20:26.877Z,99079.31
2023-01-10T11:23:12.441Z,99062.69
2023-01-10T11:25:58.523Z,99062.59
2023-01-10T11:28:45.873Z,99052.94
2023-01-10T11:31:32.454Z,99051.22
2023-01-10T11:34:37.579Z,99061.69
2023-01-10T11:37:32.428Z,99031.06
2023-01-10T11:40:27.790Z,99038.84
2023-01-10T11:43:29.615Z,99035.28
2023-01-10T11:46:24.692Z,99013.34
2023-01-10T11:49:19.550Z,99011.59
2023-01-10T11:52:15.066Z,99003.69
2023-01-10T11:55:01.618Z,99006.19
2023-01-10T11:58:00.202Z,98985.22
2023-01-10T12:00:50.184Z,98966.91
2023-01-10T12:03:40.224Z,98958.16
2023-01-10T12:06:26.356Z,98956.31
2023-01-10T12:09:39.952Z,98951.06
2023-01-10T12:12:26.467Z,98934.34
2023-01-10T12:15:30.283Z,98938.75
2023-01-10T12:18:17.896Z,98920.25
2023-01-10T12:21:03.351Z,98933.25
2023-01-10T12:23:51.738Z,98906.19
2023-01-10T12:26:37.837Z,98889.44
2023-01-10T12:29:41.124Z,98891.94
2023-01-10T12:32:35.168Z,98876.13
2023-01-10T12:35:31.453Z,98866.44
2023-01-10T12:38:48.895Z,98865.44
2023-01-10T12:42:07.152Z,98841.84
2023-01-10T12:45:05.258Z,98819.91
2023-01-10T12:48:00.994Z,98819.78
2023-01-10T12:51:01.669Z,98812.72
2023-01-10T12:53:53.636Z,98797.00
2023-01-10T12:56:40.108Z,98788.25
2023-01-10T12:59:39.339Z,98794.31
2023-01-10T13:02:29.015Z,98769.78
2023-01-10T13:05:23.473Z,98755.13
2023-01-10T13:08:19.218Z,98763.03
2023-01-10T13:11:08.000Z,98762.06
2023-01-10T13:13:59.562Z,98754.94
2023-01-10T13:16:55.279Z,98762.81
2023-01-10T13:19:40.503Z,98730.44
2023-01-10T13:22:26.593Z,98724.38
2023-01-10T13:25:53.859Z,98712.94
2023-01-10T13:28:56.389Z,98712.84
2023-01-10T13:31:41.835Z,98709.19
2023-01-10T13:34:33.728Z,98706.69
2023-01-10T13:37:27.795Z,98695.50
2023-01-10T13:40:33.317Z,98692.88
2023-01-10T13:43:34.820Z,98688.50
2023-01-10T13:46:33.043Z,98678.03
2023-01-10T13:49:38.725Z,98664.16
2023-01-10T13:52:33.275Z,98670.31
2023-01-10T13:55:32.886Z,98664.25
2023-01-10T13:58:41.242Z,98667.00
2023-01-10T14:01:51.337Z,98668.88
2023-01-10T14:04:45.410Z,98659.47
2023-01-10T14:07:41.230Z,98641.38
2023-01-10T14:10:30.514Z,98646.81
2023-01-10T14:13:22.652Z,98625.94
2023-01-10T14:16:47.088Z,98619.00
2023-01-10T14:19:34.511Z,98607.41
2023-01-10T14:22:31.228Z,98603.03
2023-01-10T14:25:22.048Z,98590.00
2023-01-10T14:28:21.549Z,98583.03
2023-01-10T14:31:21.437Z,98573.63
2023-01-10T14:34:11.926Z,98571.97
2023-01-10T14:37:08.962Z,98560.81
2023-01-10T14:39:56.309Z,98565.41
2023-01-10T14:42:42.126Z,98556.97
2023-01-10T14:45:39.604Z,98552.69
2023-01-10T14:48:31.647Z,98547.59
2023-01-10T14:51:25.204Z,98566.09
2023-01-10T14:54:14.771Z,98520.84
2023-01-10T14:57:00.068Z,98541.13
2023-01-10T14:59:45.820Z,98539.69
2023-01-10T15:02:31.560Z,98544.22
2023-01-10T15:05:28.136Z,98544.28
2023-01-10T15:08:21.927Z,98544.38
2023-01-10T15:11:12.526Z,98562.66
2023-01-10T15:14:05.211Z,98555.94
2023-01-10T15:16:54.733Z,98556.09
2023-01-10T15:19:40.870Z,98571.03
2023-01-10T15:22:33.809Z,98579.69
2023-01-10T15:25:19.139Z,98595.28
2023-01-10T15:28:11.937Z,98604.19
2023-01-10T15:30:58.681Z,98634.91
2023-01-10T15:33:56.351Z,98683.06
2023-01-10T15:36:57.569Z,98720.03
2023-01-10T15:39:48.268Z,98721.22
2023-01-10T15:42:35.410Z,98747.25
2023-01-10T15:45:37.765Z,98738.41
2023-01-10T15:48:34.463Z,98747.91
2023-01-10T15:51:34.712Z,98779.19
2023-01-10T15:54:19.900Z,98804.63
2023-01-10T15:57:24.861Z,98821.03
2023-01-10T16:00:19.091Z,98856.44
2023-01-10T16:03:18.847Z,98851.81
2023-01-10T16:06:10.047Z,98849.53
2023-01-10T16:08:57.399Z,98874.97
2023-01-10T16:12:10.321Z,98885.75
2023-01-10T16:14:56.913Z,98896.41
2023-01-10T16:17:42.318Z,98898.44
2023-01-10T16:20:32.351Z,98916.06
2023-01-10T16:23:19.655Z,98917.94
2023-01-10T16:26:09.198Z,98904.22
2023-01-10T16:28:54.756Z,98903.50
2023-01-10T16:31:41.027Z,98881.94
2023-01-10T16:34:26.616Z,98912.34
2023-01-10T16:37:12.264Z,98911.56
2023-01-10T16:39:57.613Z,98910.75
2023-01-10T16:43:01.317Z,98921.28
2023-01-10T16:46:00.022Z,98930.84
2023-01-10T16:48:47.664Z,98944.75
2023-01-10T16:51:34.274Z,98971.59
2023-01-10T16:54:25.520Z,98953.38
2023-01-10T16:57:12.485Z,98968.09
2023-01-10T16:59:58.258Z,98975.00
2023-01-10T17:02:47.078Z,98974.16
2023-01-10T17:05:35.963Z,98964.63
2023-01-10T17:08:23.938Z,98989.91
2023-01-10T17:11:34.101Z,98987.41
2023-01-10T17:14:19.929Z,98994.44
2023-01-10T17:17:05.498Z,98991.97
2023-01-10T17:19:51.045Z,98998.22
2023-01-10T17:22:36.225Z,99013.91
2023-01-10T17:25:21.678Z,99020.91
2023-01-10T17:28:07.228Z,99047.84
2023-01-10T17:30:52.904Z,99061.69
2023-01-10T17:33:38.387Z,99066.06
2023-01-10T17:36:28.676Z,99068.72
2023-01-10T17:39:13.893Z,99087.81
2023-01-10T17:42:00.984Z,99093.88
2023-01-10T17:44:46.296Z,99113.06
2023-01-10T17:47:31.818Z,99117.53
2023-01-10T17:50:17.419Z,99133.19
2023-01-10T17:53:02.983Z,99143.66
2023-01-10T17:55:49.601Z,99140.25
2023-01-10T17:58:35.548Z,99138.63
2023-01-10T18:01:25.464Z,99150.75
2023-01-10T18:04:11.396Z,99154.31
2023-01-10T18:06:57.096Z,99155.25
2023-01-10T18:09:42.401Z,99154.56
2023-01-10T18:12:27.905Z,99164.06
2023-01-10T18:15:13.282Z,99170.94
2023-01-10T18:17:58.626Z,99156.31
2023-01-10T18:20:45.036Z,99177.13
2023-01-10T18:23:31.951Z,99204.91
2023-01-10T18:26:17.668Z,99196.22
2023-01-10T18:29:03.107Z,99205.81
2023-01-10T18:31:48.450Z,99213.63
2023-01-10T18:34:33.908Z,99229.06
2023-01-10T18:37:19.501Z,99248.03
2023-01-10T18:40:05.899Z,99257.53
2023-01-10T18:42:54.161Z,99280.09
2023-01-10T18:45:42.079Z,99286.19
2023-01-10T18:48:27.691Z,99296.63
2023-01-10T18:51:14.832Z,99313.94
2023-01-10T18:54:00.253Z,99325.22
2023-01-10T18:56:45.593Z,99318.34
2023-01-10T18:59:30.822Z,99338.22
2023-01-10T19:02:16.605Z,99335.66
2023-01-10T19:05:04.004Z,99338.31
2023-01-10T19:07:50.051Z,99334.97
2023-01-10T19:10:57.322Z,99339.31
2023-01-10T19:13:41.918Z,99324.56
2023-01-10T19:16:32.006Z,99340.03
2023-01-10T19:19:17.579Z,99317.44
2023-01-10T19:22:03.020Z,99331.19
2023-01-10T19:24:48.498Z,99342.38
2023-01-10T19:27:34.091Z,99339.78
2023-01-10T19:30:19.878Z,99353.66
2023-01-10T19:33:05.870Z,99348.50
2023-01-10T19:35:51.991Z,99375.25
2023-01-10T19:38:38.028Z,99373.53
2023-01-10T19:41:24.748Z,99379.63
2023-01-10T19:44:15.865Z,99388.31
2023-01-10T19:47:01.691Z,99401.28
2023-01-10T19:49:47.290Z,99416.00
2023-01-10T19:52:32.869Z,99424.63
2023-01-10T19:55:18.304Z,99428.03
2023-01-10T19:58:03.844Z,99445.28
2023-01-10T20:00:49.395Z,99442.63
2023-01-10T20:03:34.869Z,99469.44
2023-01-10T20:06:24.633Z,99485.03
2023-01-10T20:09:12.541Z,99502.38
2023-01-10T20:11:57.997Z,99510.25
2023-01-10T20:14:43.270Z,99508.56
2023-01-10T20:17:30.098Z,99528.47
2023-01-10T20:20:16.841Z,99532.75
2023-01-10T20:23:02.347Z,99550.94
2023-01-10T20:26:06.299Z,99555.28
2023-01-10T20:28:52.435Z,99564.81
2023-01-10T20:31:38.372Z,99584.75
2023-01-10T20:34:23.858Z,99569.19
2023-01-10T20:37:09.307Z,99580.47
2023-01-10T20:39:55.267Z,99585.75
2023-01-10T20:42:41.032Z,99591.00
2023-01-10T20:45:26.598Z,99594.53
2023-01-10T20:48:12.273Z,99605.00
2023-01-10T20:50:58.043Z,99604.19
2023-01-10T20:53:44.380Z,99606.78
2023-01-10T20:56:31.812Z,99603.41
2023-01-10T20:59:17.307Z,99609.47
2023-01-10T21:02:03.556Z,99613.78
2023-01-10T21:04:50.541Z,99615.53
2023-01-10T21:07:36.296Z,99615.53
2023-01-10T21:10:21.965Z,99611.25
2023-01-10T21:13:07.535Z,99619.03
2023-01-10T21:15:55.398Z,99611.22
2023-01-10T21:18:44.344Z,99618.16
2023-01-10T21:21:30.202Z,99622.44
2023-01-10T21:24:15.951Z,99628.50
2023-01-10T21:27:01.552Z,99635.44
2023-01-10T21:29:46.835Z,99645.78
2023-01-10T21:32:32.850Z,99641.44
2023-01-10T21:35:18.351Z,99649.22
2023-01-10T21:38:04.105Z,99644.91
2023-01-10T21:40:49.731Z,99647.50
2023-01-10T21:43:36.650Z,99646.66
2023-01-10T21:46:21.961Z,99655.28
2023-01-10T21:49:07.340Z,99650.09
2023-01-10T21:51:52.621Z,99653.56
2023-01-10T21:54:38.322Z,99665.66
2023-01-10T21:57:27.846Z,99667.34
2023-01-10T22:00:13.892Z,99668.22
2023-01-10T22:02:59.796Z,99674.25
2023-01-10T22:05:45.544Z,99675.97
2023-01-10T22:08:30.774Z,99680.31
2023-01-10T22:11:16.255Z,99688.03
2023-01-10T22:14:01.695Z,99682.91
2023-01-10T22:16:47.054Z,99692.38
2023-01-10T22:19:32.567Z,99686.34
2023-01-10T22:22:19.008Z,99680.31
2023-01-10T22:25:05.276Z,99676.84
2023-01-10T22:27:50.648Z,99679.44
2023-01-10T22:30:36.009Z,99676.84
2023-01-10T22:33:22.799Z,99682.00
2023-01-10T22:36:16.928Z,99679.44
2023-01-10T22:39:02.271Z,99681.13
2023-01-10T22:41:47.720Z,99688.03
2023-01-10T22:44:33.285Z,99688.03
2023-01-10T22:47:18.523Z,99690.59
2023-01-10T22:50:04.286Z,99689.75
2023-01-10T22:52:50.731Z,99692.31
2023-01-10T22:55:36.247Z,99705.25
2023-01-10T22:58:22.220Z,99698.38
2023-01-10T23:01:07.562Z,99705.31
2023-01-10T23:03:53.121Z,99698.38
2023-01-10T23:06:38.570Z,99712.19
2023-01-10T23:09:23.867Z,99705.25
2023-01-10T23:12:09.407Z,99703.56
2023-01-10T23:14:54.797Z,99699.25
2023-01-10T23:17:40.077Z,99692.38
2023-01-10T23:20:25.724Z,99701.81
2023-01-10T23:23:11.196Z,99696.66
2023-01-10T23:26:08.562Z,99709.59
2023-01-10T23:28:54.281Z,99707.03
2023-01-10T23:31:39.724Z,99706.16
2023-01-10T23:34:25.210Z,99710.47
2023-01-10T23:37:10.776Z,99707.88
2023-01-10T23:39:56.089Z,99716.50
2023-01-10T23:42:41.587Z,99714.75
2023-01-10T23:45:27.013Z,99716.50
2023-01-10T23:48:13.598Z,99727.69
2023-01-10T23:50:59.257Z,99729.44
2023-01-10T23:53:44.766Z,99728.56
2023-01-10T23:56:30.107Z,99726.84
2023-01-10T23:59:15.631Z,99725.97
